createdAt,value
2023-04-04T00:00:12.972Z,0.00
2023-04-04T00:01:13.199Z,0.00
2023-04-04T00:02:13.588Z,0.00
2023-04-04T00:03:13.954Z,0.00
2023-04-04T00:04:14.194Z,0.00
2023-04-04T00:05:14.444Z,0.00
2023-04-04T00:06:14.727Z,0.00
2023-04-04T00:07:14.976Z,0.00
2023-04-04T00:08:15.245Z,0.00
2023-04-04T00:09:15.498Z,0.00
2023-04-04T00:10:15.785Z,0.00
2023-04-04T00:11:16.042Z,0.00
2023-04-04T00:12:16.418Z,0.00
2023-04-04T00:13:16.705Z,0.00
2023-04-04T00:14:16.989Z,0.00
2023-04-04T00:15:17.262Z,0.00
2023-04-04T00:16:17.551Z,0.00
2023-04-04T00:17:17.808Z,0.00
2023-04-04T00:18:18.077Z,0.00
2023-04-04T00:19:18.487Z,0.00
2023-04-04T00:20:18.649Z,0.00
2023-04-04T00:21:18.938Z,0.00
2023-04-04T00:22:19.239Z,0.00
2023-04-04T00:23:19.528Z,0.00
2023-04-04T00:24:19.833Z,0.00
2023-04-04T00:25:20.113Z,0.00
2023-04-04T00:26:20.384Z,0.00
2023-04-04T00:27:20.659Z,0.00
2023-04-04T00:28:20.931Z,0.00
2023-04-04T00:29:21.191Z,0.00
2023-04-04T00:30:21.464Z,0.00
2023-04-04T00:31:21.740Z,0.00
2023-04-04T00:32:22.139Z,0.00
2023-04-04T00:33:22.410Z,0.00
2023-04-04T00:34:22.655Z,0.00
2023-04-04T00:35:22.932Z,0.00
2023-04-04T00:36:23.208Z,0.00
2023-04-04T00:37:23.480Z,0.00
2023-04-04T00:38:23.781Z,0.00
2023-04-04T00:39:24.028Z,0.00
2023-04-04T00:40:24.309Z,0.00
2023-04-04T00:41:24.591Z,0.00
2023-04-04T00:42:24.884Z,0.00
2023-04-04T00:43:25.150Z,0.00
2023-04-04T00:44:25.429Z,0.00
2023-04-04T00:45:25.721Z,0.00
2023-04-04T00:46:25.984Z,0.00
2023-04-04T00:47:26.297Z,0.00
2023-04-04T00:48:26.531Z,0.00
2023-04-04T00:49:26.797Z,0.00
2023-04-04T00:50:27.079Z,0.00
2023-04-04T00:51:27.343Z,0.00
2023-04-04T00:52:27.688Z,0.00
2023-04-04T00:53:27.908Z,0.00
2023-04-04T00:54:28.201Z,0.00
2023-04-04T00:55:28.492Z,0.00
2023-04-04T00:56:28.758Z,0.00
2023-04-04T00:57:29.032Z,0.00
2023-04-04T00:58:29.297Z,0.00
2023-04-04T00:59:29.594Z,0.00
2023-04-04T01:00:29.864Z,0.00
2023-04-04T01:01:30.176Z,0.00
2023-04-04T01:02:30.441Z,0.00
2023-04-04T01:03:30.714Z,0.00
2023-04-04T01:04:31.015Z,0.00
2023-04-04T01:05:31.274Z,0.00
2023-04-04T01:06:31.550Z,0.00
2023-04-04T01:07:32.590Z,0.00
2023-04-04T01:08:32.116Z,0.00
2023-04-04T01:09:32.406Z,0.00
2023-04-04T01:10:32.682Z,0.00
2023-04-04T01:11:32.986Z,0.00
2023-04-04T01:12:33.254Z,0.00
2023-04-04T01:13:33.537Z,0.00
2023-04-04T01:14:33.805Z,0.00
2023-04-04T01:15:34.106Z,0.00
2023-04-04T01:16:34.423Z,0.00
2023-04-04T01:17:34.677Z,0.00
2023-04-04T01:18:34.931Z,0.00
2023-04-04T01:19:35.220Z,0.00
2023-04-04T01:20:35.514Z,0.00
2023-04-04T01:21:35.785Z,0.00
2023-04-04T01:22:36.052Z,0.00
2023-04-04T01:23:36.318Z,0.00
2023-04-04T01:24:36.584Z,0.00
2023-04-04T01:25:36.879Z,0.00
2023-04-04T01:26:37.148Z,0.00
2023-04-04T01:27:37.438Z,0.00
2023-04-04T01:28:37.712Z,0.00
2023-04-04T01:29:38.011Z,0.00
2023-04-04T01:30:38.455Z,0.00
2023-04-04T01:31:38.665Z,0.00
2023-04-04T01:32:38.944Z,0.00
2023-04-04T01:33:39.250Z,0.00
2023-04-04T01:34:39.510Z,0.00
2023-04-04T01:35:39.821Z,0.00
2023-04-04T01:36:40.068Z,0.00
2023-04-04T01:37:40.471Z,0.00
2023-04-04T01:38:40.849Z,0.00
2023-04-04T01:39:41.104Z,0.00
2023-04-04T01:40:41.611Z,0.00
2023-04-04T01:41:41.665Z,0.00
2023-04-04T01:42:41.942Z,0.00
2023-04-04T01:43:42.235Z,0.00
2023-04-04T01:44:42.511Z,0.00
2023-04-04T01:45:42.842Z,0.00
2023-04-04T01:46:43.095Z,0.00
2023-04-04T01:47:43.439Z,0.00
2023-04-04T01:48:43.693Z,0.00
2023-04-04T01:49:43.982Z,0.00
2023-04-04T01:50:44.284Z,0.00
2023-04-04T01:51:44.584Z,0.00
2023-04-04T01:52:44.861Z,0.00
2023-04-04T01:53:45.169Z,0.00
2023-04-04T01:54:45.441Z,0.00
2023-04-04T01:55:45.770Z,0.00
2023-04-04T01:56:46.049Z,0.00
2023-04-04T01:57:46.344Z,0.00
2023-04-04T01:58:46.627Z,0.00
2023-04-04T01:59:46.906Z,0.00
2023-04-04T02:00:47.185Z,0.00
2023-04-04T02:01:47.592Z,0.00
2023-04-04T02:02:47.801Z,0.00
2023-04-04T02:03:48.100Z,0.00
2023-04-04T02:04:48.345Z,0.00
2023-04-04T02:05:48.639Z,0.00
2023-04-04T02:06:49.056Z,0.00
2023-04-04T02:07:49.237Z,0.00
2023-04-04T02:08:49.518Z,0.00
2023-04-04T02:09:49.806Z,0.00
2023-04-04T02:10:50.092Z,0.00
2023-04-04T02:11:50.380Z,0.00
2023-04-04T02:12:50.711Z,0.00
2023-04-04T02:13:50.992Z,0.00
2023-04-04T02:14:51.270Z,0.00
2023-04-04T02:15:51.605Z,0.00
2023-04-04T02:16:51.879Z,0.00
2023-04-04T02:17:52.175Z,0.00
2023-04-04T02:18:52.457Z,0.00
2023-04-04T02:19:52.762Z,0.00
2023-04-04T02:20:53.055Z,0.00
2023-04-04T02:21:53.358Z,0.00
2023-04-04T02:22:53.668Z,0.00
2023-04-04T02:23:53.918Z,0.00
2023-04-04T02:24:54.207Z,0.00
2023-04-04T02:25:54.502Z,0.00
2023-04-04T02:26:54.784Z,0.00
2023-04-04T02:27:55.175Z,0.00
2023-04-04T02:28:55.360Z,0.00
2023-04-04T02:29:55.647Z,0.00
2023-04-04T02:30:55.969Z,0.00
2023-04-04T02:31:56.243Z,0.00
2023-04-04T02:32:56.544Z,0.00
2023-04-04T02:33:56.806Z,0.00
2023-04-04T02:34:57.084Z,0.00
2023-04-04T02:35:57.403Z,0.00
2023-04-04T02:36:57.701Z,0.00
2023-04-04T02:37:57.984Z,0.00
2023-04-04T02:38:58.272Z,0.00
2023-04-04T02:39:58.563Z,0.00
2023-04-04T02:40:58.856Z,0.00
2023-04-04T02:41:59.159Z,0.00
2023-04-04T02:42:59.451Z,0.00
2023-04-04T02:43:59.752Z,0.00
2023-04-04T02:45:00.035Z,0.00
2023-04-04T02:46:07.764Z,0.00
2023-04-04T02:47:01.688Z,0.00
2023-04-04T02:48:01.002Z,0.00
2023-04-04T02:49:01.269Z,0.00
2023-04-04T02:50:01.580Z,0.00
2023-04-04T02:51:01.911Z,0.00
2023-04-04T02:52:02.216Z,0.00
2023-04-04T02:53:02.559Z,0.00
2023-04-04T02:54:02.856Z,0.00
2023-04-04T02:55:03.138Z,0.00
2023-04-04T02:56:03.450Z,0.00
2023-04-04T02:57:03.767Z,0.00
2023-04-04T02:58:04.088Z,0.00
2023-04-04T02:59:04.403Z,0.00
2023-04-04T03:00:04.688Z,0.00
2023-04-04T03:01:05.026Z,0.00
2023-04-04T03:02:05.334Z,0.00
2023-04-04T03:03:05.714Z,0.00
2023-04-04T03:04:06.026Z,0.00
2023-04-04T03:05:06.176Z,0.00
2023-04-04T03:06:06.470Z,0.00
2023-04-04T03:07:06.754Z,0.00
2023-04-04T03:08:07.058Z,0.00
2023-04-04T03:09:07.341Z,0.00
2023-04-04T03:10:07.738Z,0.00
2023-04-04T03:11:07.908Z,0.00
2023-04-04T03:12:08.191Z,0.00
2023-04-04T03:13:08.511Z,0.00
2023-04-04T03:14:08.800Z,0.00
2023-04-04T03:15:09.074Z,0.00
2023-04-04T03:16:09.408Z,0.00
2023-04-04T03:17:09.667Z,0.00
2023-04-04T03:18:10.012Z,0.00
2023-04-04T03:19:10.255Z,0.00
2023-04-04T03:20:10.551Z,0.00
2023-04-04T03:21:10.859Z,0.00
2023-04-04T03:22:11.143Z,0.00
2023-04-04T03:23:11.438Z,0.00
2023-04-04T03:24:11.722Z,0.00
2023-04-04T03:25:12.018Z,0.00
2023-04-04T03:26:12.310Z,0.00
2023-04-04T03:27:12.589Z,0.00
2023-04-04T03:28:12.902Z,0.00
2023-04-04T03:29:13.189Z,0.00
2023-04-04T03:30:13.495Z,0.00
2023-04-04T03:31:13.772Z,0.00
2023-04-04T03:32:14.130Z,0.00
2023-04-04T03:33:14.350Z,0.00
2023-04-04T03:34:14.630Z,0.00
2023-04-04T03:35:14.973Z,0.00
2023-04-04T03:36:15.329Z,0.00
2023-04-04T03:37:15.578Z,0.00
2023-04-04T03:38:15.870Z,0.00
2023-04-04T03:39:16.205Z,0.00
2023-04-04T03:40:16.611Z,0.00
2023-04-04T03:41:16.788Z,0.00
2023-04-04T03:42:17.102Z,0.00
2023-04-04T03:43:17.394Z,0.00
2023-04-04T03:44:17.682Z,0.00
2023-04-04T03:45:17.994Z,0.00
2023-04-04T03:46:18.314Z,0.00
2023-04-04T03:47:18.625Z,0.00
2023-04-04T03:48:18.873Z,0.00
2023-04-04T03:49:19.165Z,0.00
2023-04-04T03:50:19.458Z,0.00
2023-04-04T03:51:19.756Z,0.00
2023-04-04T03:52:20.095Z,0.00
2023-04-04T03:53:20.392Z,0.00
2023-04-04T03:54:20.710Z,0.00
2023-04-04T03:55:21.013Z,0.00
2023-04-04T03:56:21.360Z,0.00
2023-04-04T03:57:21.643Z,0.00
2023-04-04T03:58:21.968Z,0.00
2023-04-04T03:59:22.315Z,0.00
2023-04-04T04:00:22.784Z,0.00
2023-04-04T04:01:22.905Z,0.00
2023-04-04T04:02:23.217Z,0.00
2023-04-04T04:03:23.574Z,4.00
2023-04-04T04:04:23.829Z,4.00
2023-04-04T04:05:24.080Z,0.00
2023-04-04T04:06:24.399Z,4.00
2023-04-04T04:07:24.701Z,4.00
2023-04-04T04:08:25.331Z,4.00
2023-04-04T04:09:25.207Z,4.00
2023-04-04T04:10:25.536Z,4.00
2023-04-04T04:11:25.826Z,8.00
2023-04-04T04:12:26.127Z,8.00
2023-04-04T04:13:26.413Z,8.00
2023-04-04T04:14:26.704Z,8.00
2023-04-04T04:15:27.021Z,12.00
2023-04-04T04:16:27.369Z,12.00
2023-04-04T04:17:27.645Z,16.00
2023-04-04T04:18:27.929Z,20.00
2023-04-04T04:19:28.221Z,20.00
2023-04-04T04:20:28.554Z,28.00
2023-04-04T04:21:28.804Z,28.00
2023-04-04T04:22:29.156Z,36.00
2023-04-04T04:23:29.514Z,40.00
2023-04-04T04:24:29.898Z,48.00
2023-04-04T04:25:37.239Z,56.00
2023-04-04T04:26:30.512Z,60.00
2023-04-04T04:27:30.868Z,72.00
2023-04-04T04:28:34.188Z,80.00
2023-04-04T04:29:31.480Z,92.00
2023-04-04T04:30:31.847Z,104.00
2023-04-04T04:31:32.243Z,120.00
2023-04-04T04:32:32.607Z,132.00
2023-04-04T04:33:32.921Z,148.00
2023-04-04T04:34:33.273Z,160.00
2023-04-04T04:35:33.617Z,180.00
2023-04-04T04:36:33.996Z,200.00
2023-04-04T04:37:34.235Z,220.00
2023-04-04T04:38:34.593Z,240.00
2023-04-04T04:39:34.938Z,260.00
2023-04-04T04:40:35.305Z,284.00
2023-04-04T04:41:35.678Z,308.00
2023-04-04T04:42:35.944Z,332.00
2023-04-04T04:43:36.282Z,360.00
2023-04-04T04:44:36.668Z,384.00
2023-04-04T04:45:37.005Z,412.00
2023-04-04T04:46:37.432Z,436.00
2023-04-04T04:47:37.778Z,468.00
2023-04-04T04:48:38.026Z,496.00
2023-04-04T04:49:38.339Z,528.00
2023-04-04T04:50:39.104Z,556.00
2023-04-04T04:51:39.057Z,584.00
2023-04-04T04:52:39.424Z,616.00
2023-04-04T04:53:39.745Z,648.00
2023-04-04T04:54:40.105Z,680.00
2023-04-04T04:55:40.469Z,712.00
2023-04-04T04:56:40.844Z,740.00
2023-04-04T04:57:41.069Z,772.00
2023-04-04T04:58:41.442Z,800.00
2023-04-04T04:59:41.695Z,836.00
2023-04-04T05:00:42.356Z,864.00
2023-04-04T05:01:42.360Z,896.00
2023-04-04T05:02:42.760Z,924.00
2023-04-04T05:03:43.004Z,960.00
2023-04-04T05:04:43.356Z,988.00
2023-04-04T05:05:43.711Z,1020.00
2023-04-04T05:06:44.094Z,1048.00
2023-04-04T05:07:44.345Z,1080.00
2023-04-04T05:08:44.710Z,1112.00
2023-04-04T05:09:45.059Z,1144.00
2023-04-04T05:10:45.426Z,1172.00
2023-04-04T05:11:45.781Z,1200.00
2023-04-04T05:12:46.178Z,1228.00
2023-04-04T05:13:46.420Z,1260.00
2023-04-04T05:14:46.776Z,1288.00
2023-04-04T05:15:47.139Z,1320.00
2023-04-04T05:16:48.702Z,1348.00
2023-04-04T05:17:47.884Z,1376.00
2023-04-04T05:18:48.139Z,1404.00
2023-04-04T05:19:48.511Z,1432.00
2023-04-04T05:20:48.799Z,1456.00
2023-04-04T05:21:49.149Z,1484.00
2023-04-04T05:22:51.119Z,1520.00
2023-04-04T05:23:49.820Z,1576.00
2023-04-04T05:24:50.141Z,1628.00
2023-04-04T05:25:50.492Z,1680.00
2023-04-04T05:26:50.842Z,1736.00
2023-04-04T05:27:51.200Z,1800.00
2023-04-04T05:28:51.520Z,1936.00
2023-04-04T05:29:51.920Z,2052.00
2023-04-04T05:30:52.144Z,2132.00
2023-04-04T05:31:52.534Z,2236.00
2023-04-04T05:32:52.925Z,2236.00
2023-04-04T05:33:53.143Z,2184.00
2023-04-04T05:34:53.402Z,2184.00
2023-04-04T05:35:53.840Z,2228.00
2023-04-04T05:36:54.499Z,2320.00
2023-04-04T05:37:54.317Z,2468.00
2023-04-04T05:38:54.624Z,2332.00
2023-04-04T05:39:54.955Z,2404.00
2023-04-04T05:40:55.276Z,2488.00
2023-04-04T05:41:55.590Z,2476.00
2023-04-04T05:42:55.894Z,2600.00
2023-04-04T05:43:56.200Z,2808.00
2023-04-04T05:44:56.508Z,2988.00
2023-04-04T05:45:56.913Z,3096.00
2023-04-04T05:46:57.172Z,3312.00
2023-04-04T05:47:57.500Z,3872.00
2023-04-04T05:48:57.730Z,4724.00
2023-04-04T05:49:57.989Z,4644.00
2023-04-04T05:50:58.264Z,4976.00
2023-04-04T05:51:58.558Z,5228.00
2023-04-04T05:52:58.842Z,3680.00
2023-04-04T05:53:59.107Z,3248.00
2023-04-04T05:54:59.361Z,3412.00
2023-04-04T05:55:59.718Z,3416.00
2023-04-04T05:56:59.961Z,3392.00
2023-04-04T05:58:00.211Z,3500.00
2023-04-04T05:59:00.476Z,3952.00
2023-04-04T06:00:00.724Z,4232.00
2023-04-04T06:01:00.961Z,4076.00
2023-04-04T06:02:01.203Z,3936.00
2023-04-04T06:03:01.599Z,4204.00
2023-04-04T06:04:01.785Z,4628.00
2023-04-04T06:05:02.020Z,4912.00
2023-04-04T06:06:02.320Z,4656.00
2023-04-04T06:07:02.591Z,4528.00
2023-04-04T06:08:02.825Z,5088.00
2023-04-04T06:09:03.055Z,5192.00
2023-04-04T06:10:03.408Z,5400.00
2023-04-04T06:11:03.624Z,8064.00
2023-04-04T06:12:03.971Z,7100.00
2023-04-04T06:13:04.178Z,5700.00
2023-04-04T06:14:04.514Z,11792.00
2023-04-04T06:15:04.748Z,9812.00
2023-04-04T06:16:05.004Z,6192.00
2023-04-04T06:17:05.208Z,6216.00
2023-04-04T06:18:05.504Z,7012.00
2023-04-04T06:19:05.678Z,8496.00
2023-04-04T06:20:06.020Z,10332.00
2023-04-04T06:21:06.245Z,8908.00
2023-04-04T06:22:06.517Z,8512.00
2023-04-04T06:23:06.732Z,9980.00
2023-04-04T06:24:06.965Z,10808.00
2023-04-04T06:25:07.200Z,11756.00
2023-04-04T06:26:07.418Z,13256.00
2023-04-04T06:27:07.665Z,8772.00
2023-04-04T06:28:08.792Z,7164.00
2023-04-04T06:29:08.180Z,10092.00
2023-04-04T06:30:11.049Z,10972.00
2023-04-04T06:31:08.815Z,10468.00
2023-04-04T06:32:08.922Z,10788.00
2023-04-04T06:33:09.132Z,11396.00
2023-04-04T06:34:09.468Z,14124.00
2023-04-04T06:35:09.680Z,16032.00
2023-04-04T06:36:09.926Z,19456.00
2023-04-04T06:37:10.109Z,20864.00
2023-04-04T06:38:10.322Z,20896.00
2023-04-04T06:39:10.512Z,21472.00
2023-04-04T06:40:10.825Z,18944.00
2023-04-04T06:41:11.037Z,13012.00
2023-04-04T06:42:11.340Z,9948.00
2023-04-04T06:43:11.551Z,10516.00
2023-04-04T06:44:11.867Z,10604.00
2023-04-04T06:45:12.048Z,10460.00
2023-04-04T06:46:12.367Z,10624.00
2023-04-04T06:47:12.540Z,10708.00
2023-04-04T06:48:12.728Z,10468.00
2023-04-04T06:49:12.938Z,10072.00
2023-04-04T06:50:13.193Z,10028.00
2023-04-04T06:51:13.432Z,10188.00
2023-04-04T06:52:13.617Z,9864.00
2023-04-04T06:53:13.800Z,9604.00
2023-04-04T06:54:14.005Z,9748.00
2023-04-04T06:55:14.183Z,10612.00
2023-04-04T06:56:14.367Z,10892.00
2023-04-04T06:57:14.543Z,11228.00
2023-04-04T06:58:14.734Z,11268.00
2023-04-04T06:59:14.938Z,11092.00
2023-04-04T07:00:15.114Z,11192.00
2023-04-04T07:01:15.344Z,11364.00
2023-04-04T07:02:15.515Z,11624.00
2023-04-04T07:03:15.737Z,12280.00
2023-04-04T07:04:15.873Z,12880.00
2023-04-04T07:05:16.048Z,15560.00
2023-04-04T07:06:16.218Z,19168.00
2023-04-04T07:07:16.417Z,28672.00
2023-04-04T07:08:16.588Z,31424.00
2023-04-04T07:09:28.060Z,32448.00
2023-04-04T07:10:18.121Z,32576.00
2023-04-04T07:11:17.303Z,31136.00
2023-04-04T07:12:17.487Z,30720.00
2023-04-04T07:13:17.660Z,31840.00
2023-04-04T07:14:17.948Z,32672.00
2023-04-04T07:15:18.140Z,33504.00
2023-04-04T07:16:18.431Z,32768.00
2023-04-04T07:17:24.814Z,35104.00
2023-04-04T07:18:19.865Z,36832.00
2023-04-04T07:19:19.025Z,36928.00
2023-04-04T07:20:19.298Z,36320.00
2023-04-04T07:21:19.521Z,37888.00
2023-04-04T07:22:19.687Z,24160.00
2023-04-04T07:23:19.862Z,38944.00
2023-04-04T07:24:20.038Z,39488.00
2023-04-04T07:25:20.213Z,40224.00
2023-04-04T07:26:20.479Z,40768.00
2023-04-04T07:27:20.626Z,41152.00
2023-04-04T07:28:20.902Z,41760.00
2023-04-04T07:29:21.060Z,41888.00
2023-04-04T07:30:21.233Z,42144.00
2023-04-04T07:31:21.425Z,42464.00
2023-04-04T07:32:23.268Z,44160.00
2023-04-04T07:33:21.741Z,45120.00
2023-04-04T07:34:21.884Z,42944.00
2023-04-04T07:35:22.032Z,29696.00
2023-04-04T07:36:22.163Z,18592.00
2023-04-04T07:37:22.404Z,26048.00
2023-04-04T07:38:22.647Z,36864.00
2023-04-04T07:39:22.794Z,43104.00
2023-04-04T07:40:22.945Z,42464.00
2023-04-04T07:41:23.097Z,42624.00
2023-04-04T07:42:23.365Z,41984.00
2023-04-04T07:43:23.372Z,33248.00
2023-04-04T07:44:23.539Z,22016.00
2023-04-04T07:45:23.732Z,15648.00
2023-04-04T07:46:23.913Z,16480.00
2023-04-04T07:47:24.031Z,24928.00
2023-04-04T07:48:24.146Z,42144.00
2023-04-04T07:49:24.243Z,45568.00
2023-04-04T07:50:24.489Z,25408.00
2023-04-04T07:51:24.610Z,18688.00
2023-04-04T07:52:24.867Z,18624.00
2023-04-04T07:53:24.989Z,19840.00
2023-04-04T07:54:25.231Z,27808.00
2023-04-04T07:55:25.531Z,12400.00
2023-04-04T07:56:25.542Z,20576.00
2023-04-04T07:57:25.733Z,32544.00
2023-04-04T07:58:25.875Z,44864.00
2023-04-04T07:59:26.050Z,43392.00
2023-04-04T08:00:26.132Z,40672.00
2023-04-04T08:01:26.267Z,44256.00
2023-04-04T08:02:26.474Z,40160.00
2023-04-04T08:03:26.698Z,30336.00
2023-04-04T08:04:26.795Z,26016.00
2023-04-04T08:05:26.910Z,23488.00
2023-04-04T08:06:28.163Z,38752.00
2023-04-04T08:07:29.322Z,48640.00
2023-04-04T08:08:27.394Z,8512.00
2023-04-04T08:09:27.501Z,18560.00
2023-04-04T08:10:27.628Z,21760.00
2023-04-04T08:11:27.755Z,13084.00
2023-04-04T08:12:27.903Z,20160.00
2023-04-04T08:13:28.439Z,20704.00
2023-04-04T08:14:28.196Z,24128.00
2023-04-04T08:15:28.330Z,25696.00
2023-04-04T08:16:28.509Z,36832.00
2023-04-04T08:17:28.622Z,57600.00
2023-04-04T08:18:28.726Z,57568.00
2023-04-04T08:19:28.970Z,60864.00
2023-04-04T08:20:29.020Z,60992.00
2023-04-04T08:21:29.159Z,60928.00
2023-04-04T08:22:29.302Z,63488.00
2023-04-04T08:23:29.438Z,62976.00
2023-04-04T08:24:29.581Z,61952.00
2023-04-04T08:25:29.674Z,63680.00
2023-04-04T08:26:29.912Z,65664.00
2023-04-04T08:27:30.041Z,66752.00
2023-04-04T08:28:30.188Z,63936.00
2023-04-04T08:29:30.288Z,62144.00
2023-04-04T08:30:30.390Z,61184.00
2023-04-04T08:31:30.538Z,61280.00
2023-04-04T08:32:30.660Z,61984.00
2023-04-04T08:33:44.328Z,61920.00
2023-04-04T08:34:31.984Z,60864.00
2023-04-04T08:35:31.116Z,59424.00
2023-04-04T08:36:31.218Z,61728.00
2023-04-04T08:37:31.356Z,62304.00
2023-04-04T08:38:31.485Z,63072.00
2023-04-04T08:39:31.588Z,63456.00
2023-04-04T08:40:33.772Z,63488.00
2023-04-04T08:41:31.815Z,66304.00
2023-04-04T08:42:31.938Z,65088.00
2023-04-04T08:43:32.053Z,65440.00
2023-04-04T08:44:32.126Z,65504.00
2023-04-04T08:45:32.229Z,64832.00
2023-04-04T08:46:32.375Z,67424.00
2023-04-04T08:47:32.508Z,70400.00
2023-04-04T08:48:32.635Z,68544.00
2023-04-04T08:49:32.792Z,68768.00
2023-04-04T08:50:32.856Z,71808.00
2023-04-04T08:51:33.021Z,73536.00
2023-04-04T08:52:33.103Z,67616.00
2023-04-04T08:53:33.193Z,73312.00
2023-04-04T08:54:33.275Z,73856.00
2023-04-04T08:55:33.412Z,72000.00
2023-04-04T08:56:33.502Z,70400.00
2023-04-04T08:57:33.902Z,69024.00
2023-04-04T08:58:33.773Z,68608.00
2023-04-04T08:59:33.885Z,66816.00
2023-04-04T09:00:33.950Z,68864.00
2023-04-04T09:01:34.199Z,67904.00
2023-04-04T09:02:34.275Z,67968.00
2023-04-04T09:03:34.322Z,67808.00
2023-04-04T09:04:34.376Z,67008.00
2023-04-04T09:05:34.464Z,68480.00
2023-04-04T09:06:34.558Z,69312.00
2023-04-04T09:07:36.469Z,70080.00
2023-04-04T09:08:34.832Z,69248.00
2023-04-04T09:09:34.888Z,68096.00
2023-04-04T09:10:34.962Z,67744.00
2023-04-04T09:11:35.019Z,66464.00
2023-04-04T09:12:35.114Z,70336.00
2023-04-04T09:13:35.187Z,73504.00
2023-04-04T09:14:35.252Z,75648.00
2023-04-04T09:15:35.326Z,77184.00
2023-04-04T09:16:35.426Z,77632.00
2023-04-04T09:17:35.502Z,76512.00
2023-04-04T09:18:35.535Z,76992.00
2023-04-04T09:19:35.748Z,79328.00
2023-04-04T09:20:35.691Z,76704.00
2023-04-04T09:21:35.755Z,76544.00
2023-04-04T09:22:35.833Z,77504.00
2023-04-04T09:23:35.894Z,80384.00
2023-04-04T09:24:35.955Z,79392.00
2023-04-04T09:25:35.996Z,79712.00
2023-04-04T09:26:36.026Z,80480.00
2023-04-04T09:27:36.084Z,78880.00
2023-04-04T09:28:36.121Z,40064.00
2023-04-04T09:29:36.155Z,83872.00
2023-04-04T09:30:36.204Z,22144.00
2023-04-04T09:31:36.287Z,12884.00
2023-04-04T09:32:36.319Z,13632.00
2023-04-04T09:33:36.368Z,53600.00
2023-04-04T09:34:36.410Z,67776.00
2023-04-04T09:35:36.536Z,31584.00
2023-04-04T09:36:36.610Z,75584.00
2023-04-04T09:37:36.688Z,76416.00
2023-04-04T09:38:36.894Z,42208.00
2023-04-04T09:39:36.958Z,9204.00
2023-04-04T09:40:37.105Z,9012.00
2023-04-04T09:41:37.099Z,9616.00
2023-04-04T09:42:37.228Z,11912.00
2023-04-04T09:43:37.325Z,12608.00
2023-04-04T09:44:37.568Z,10012.00
2023-04-04T09:45:37.712Z,10040.00
2023-04-04T09:46:37.741Z,12936.00
2023-04-04T09:47:37.886Z,14264.00
2023-04-04T09:48:37.959Z,12248.00
2023-04-04T09:49:38.181Z,12820.00
2023-04-04T09:50:38.799Z,13496.00
2023-04-04T09:51:38.464Z,16384.00
2023-04-04T09:52:38.607Z,69856.00
2023-04-04T09:53:38.759Z,21696.00
2023-04-04T09:54:48.027Z,29408.00
2023-04-04T09:55:40.361Z,78912.00
2023-04-04T09:56:39.299Z,65376.00
2023-04-04T09:57:39.643Z,14136.00
2023-04-04T09:58:46.397Z,12828.00
2023-04-04T09:59:40.842Z,12564.00
2023-04-04T10:00:40.166Z,13752.00
2023-04-04T10:01:40.234Z,15840.00
2023-04-04T10:02:40.371Z,54112.00
2023-04-04T10:03:40.535Z,84960.00
2023-04-04T10:04:40.641Z,85568.00
2023-04-04T10:05:40.809Z,88544.00
2023-04-04T10:06:40.923Z,17856.00
2023-04-04T10:07:41.087Z,17728.00
2023-04-04T10:08:41.280Z,39872.00
2023-04-04T10:09:41.396Z,33056.00
2023-04-04T10:10:41.485Z,52352.00
2023-04-04T10:11:41.598Z,19328.00
2023-04-04T10:12:41.729Z,14320.00
2023-04-04T10:13:42.277Z,11444.00
2023-04-04T10:14:41.939Z,9512.00
2023-04-04T10:15:42.110Z,8100.00
2023-04-04T10:16:42.169Z,7316.00
2023-04-04T10:17:42.345Z,7232.00
2023-04-04T10:18:42.451Z,7680.00
2023-04-04T10:19:42.582Z,8404.00
2023-04-04T10:20:42.700Z,9472.00
2023-04-04T10:21:42.852Z,11424.00
2023-04-04T10:22:44.697Z,12608.00
2023-04-04T10:23:43.282Z,11744.00
2023-04-04T10:24:44.232Z,12096.00
2023-04-04T10:25:51.534Z,91168.00
2023-04-04T10:26:43.785Z,91808.00
2023-04-04T10:27:43.928Z,88256.00
2023-04-04T10:28:46.685Z,87776.00
2023-04-04T10:29:44.287Z,59200.00
2023-04-04T10:30:55.754Z,88640.00
2023-04-04T10:31:45.659Z,47936.00
2023-04-04T10:32:44.835Z,17664.00
2023-04-04T10:33:44.914Z,13772.00
2023-04-04T10:34:45.064Z,16864.00
2023-04-04T10:35:45.146Z,41248.00
2023-04-04T10:36:45.218Z,81312.00
2023-04-04T10:37:45.370Z,23200.00
2023-04-04T10:38:45.475Z,90944.00
2023-04-04T10:39:45.552Z,70176.00
2023-04-04T10:40:45.711Z,14764.00
2023-04-04T10:41:45.806Z,12700.00
2023-04-04T10:42:47.225Z,11980.00
2023-04-04T10:43:46.080Z,13264.00
2023-04-04T10:44:46.154Z,23680.00
2023-04-04T10:45:46.350Z,37376.00
2023-04-04T10:46:46.498Z,19520.00
2023-04-04T10:47:46.646Z,26848.00
2023-04-04T10:48:46.698Z,44288.00
2023-04-04T10:49:46.788Z,39296.00
2023-04-04T10:50:47.915Z,94336.00
2023-04-04T10:51:55.723Z,46656.00
2023-04-04T10:52:49.298Z,18656.00
2023-04-04T10:53:47.382Z,18336.00
2023-04-04T10:54:47.471Z,18624.00
2023-04-04T10:55:48.651Z,20928.00
2023-04-04T10:56:48.807Z,92928.00
2023-04-04T10:57:48.043Z,25888.00
2023-04-04T10:58:48.147Z,16256.00
2023-04-04T10:59:48.337Z,12904.00
2023-04-04T11:00:48.477Z,12128.00
2023-04-04T11:01:48.565Z,12780.00
2023-04-04T11:02:48.745Z,14064.00
2023-04-04T11:03:48.831Z,16832.00
2023-04-04T11:04:48.920Z,18752.00
2023-04-04T11:05:49.291Z,86816.00
2023-04-04T11:06:49.326Z,29088.00
2023-04-04T11:08:04.408Z,21760.00
2023-04-04T11:08:50.646Z,18336.00
2023-04-04T11:09:49.904Z,35680.00
2023-04-04T11:10:50.021Z,18112.00
2023-04-04T11:11:50.150Z,15936.00
2023-04-04T11:12:53.029Z,76000.00
2023-04-04T11:13:50.398Z,81696.00
2023-04-04T11:14:50.508Z,82336.00
2023-04-04T11:15:50.630Z,83744.00
2023-04-04T11:16:50.760Z,83136.00
2023-04-04T11:17:51.036Z,77280.00
2023-04-04T11:18:51.004Z,84928.00
2023-04-04T11:19:51.081Z,78016.00
2023-04-04T11:20:51.188Z,81504.00
2023-04-04T11:21:51.225Z,24000.00
2023-04-04T11:22:51.330Z,15680.00
2023-04-04T11:23:51.405Z,11520.00
2023-04-04T11:24:51.569Z,10444.00
2023-04-04T11:25:51.636Z,10116.00
2023-04-04T11:26:51.694Z,10116.00
2023-04-04T11:27:51.821Z,10192.00
2023-04-04T11:28:51.855Z,10260.00
2023-04-04T11:29:52.054Z,10744.00
2023-04-04T11:30:52.138Z,11268.00
2023-04-04T11:31:52.284Z,11516.00
2023-04-04T11:33:03.833Z,11480.00
2023-04-04T11:33:53.465Z,11656.00
2023-04-04T11:34:52.550Z,12344.00
2023-04-04T11:35:52.786Z,13372.00
2023-04-04T11:36:52.904Z,21344.00
2023-04-04T11:37:53.052Z,66752.00
2023-04-04T11:38:53.175Z,68320.00
2023-04-04T11:39:53.294Z,70816.00
2023-04-04T11:40:53.407Z,16960.00
2023-04-04T11:41:53.536Z,16960.00
2023-04-04T11:42:53.641Z,27744.00
2023-04-04T11:43:53.773Z,78880.00
2023-04-04T11:44:53.875Z,20832.00
2023-04-04T11:45:53.997Z,16960.00
2023-04-04T11:46:54.090Z,16352.00
2023-04-04T11:47:54.242Z,17408.00
2023-04-04T11:48:54.391Z,74144.00
2023-04-04T11:49:54.596Z,69824.00
2023-04-04T11:50:54.740Z,64544.00
2023-04-04T11:51:54.818Z,66752.00
2023-04-04T11:52:54.934Z,64896.00
2023-04-04T11:53:55.023Z,57248.00
2023-04-04T11:54:55.118Z,16800.00
2023-04-04T11:55:55.324Z,14124.00
2023-04-04T11:56:55.415Z,13264.00
2023-04-04T11:57:55.544Z,12992.00
2023-04-04T11:59:08.689Z,12128.00
2023-04-04T11:59:56.861Z,11248.00
2023-04-04T12:00:55.943Z,10868.00
2023-04-04T12:01:56.057Z,10784.00
2023-04-04T12:02:56.331Z,11020.00
2023-04-04T12:03:56.313Z,11572.00
2023-04-04T12:04:56.489Z,12476.00
2023-04-04T12:05:56.617Z,13628.00
2023-04-04T12:06:56.723Z,13912.00
2023-04-04T12:07:56.957Z,14108.00
2023-04-04T12:08:57.092Z,14464.00
2023-04-04T12:09:57.499Z,15148.00
2023-04-04T12:10:57.401Z,15968.00
2023-04-04T12:11:57.546Z,27392.00
2023-04-04T12:12:57.695Z,21184.00
2023-04-04T12:13:57.835Z,46656.00
2023-04-04T12:15:10.240Z,17536.00
2023-04-04T12:15:59.213Z,17248.00
2023-04-04T12:16:58.328Z,17696.00
2023-04-04T12:17:58.616Z,16512.00
2023-04-04T12:18:58.769Z,17792.00
2023-04-04T12:19:58.921Z,17536.00
2023-04-04T12:20:59.044Z,49568.00
2023-04-04T12:21:59.185Z,47200.00
2023-04-04T12:22:59.340Z,18880.00